createdAt,value
2016-11-04T00:00:38.269Z,968.67
2016-11-04T00:01:38.229Z,968.73
2016-11-04T00:02:38.188Z,968.67
2016-11-04T00:03:38.146Z,968.7
2016-11-04T00:04:38.104Z,968.65
2016-11-04T00:05:38.064Z,968.69
2016-11-04T00:06:38.024Z,968.68
2016-11-04T00:07:37.978Z,968.66
2016-11-04T00:08:37.938Z,968.66
2016-11-04T00:09:37.897Z,968.66
2016-11-04T00:10:37.856Z,968.65
2016-11-04T00:11:37.813Z,968.69
2016-11-04T00:12:37.771Z,968.63
2016-11-04T00:13:37.731Z,968.63
2016-11-04T00:14:37.688Z,968.61
2016-11-04T00:15:37.647Z,968.59
2016-11-04T00:16:37.611Z,968.57
2016-11-04T00:17:37.562Z,968.55
2016-11-04T00:18:37.522Z,968.56
2016-11-04T00:19:37.480Z,968.54
2016-11-04T00:20:37.439Z,968.55
2016-11-04T00:21:37.398Z,968.55
2016-11-04T00:22:37.357Z,968.59
2016-11-04T00:23:37.313Z,968.59
2016-11-04T00:24:37.272Z,968.56
2016-11-04T00:25:37.231Z,968.59
2016-11-04T00:26:37.190Z,968.54
2016-11-04T00:27:37.146Z,968.55
2016-11-04T00:28:37.106Z,968.52
2016-11-04T00:29:37.064Z,968.53
2016-11-04T00:30:37.022Z,968.52
2016-11-04T00:31:36.980Z,968.46
2016-11-04T00:32:36.939Z,968.49
2016-11-04T00:33:36.898Z,968.47
2016-11-04T00:34:36.855Z,968.49
2016-11-04T00:35:36.813Z,968.46
2016-11-04T00:36:36.772Z,968.49
2016-11-04T00:37:36.730Z,968.53
2016-11-04T00:38:36.689Z,968.5
2016-11-04T00:39:36.648Z,968.51
2016-11-04T00:40:36.605Z,968.52
2016-11-04T00:41:36.565Z,968.49
2016-11-04T00:42:36.523Z,968.52
2016-11-04T00:43:36.481Z,968.51
2016-11-04T00:44:36.438Z,968.51
2016-11-04T00:45:36.397Z,968.49
2016-11-04T00:46:36.356Z,968.48
2016-11-04T00:47:36.314Z,968.44
2016-11-04T00:48:36.273Z,968.45
2016-11-04T00:49:36.231Z,968.43
2016-11-04T00:50:36.189Z,968.46
2016-11-04T00:51:36.146Z,968.41
2016-11-04T00:52:36.108Z,968.47
2016-11-04T00:53:36.065Z,968.43
2016-11-04T00:54:36.022Z,968.4
2016-11-04T00:55:35.979Z,968.38
2016-11-04T00:56:35.938Z,968.42
2016-11-04T00:57:35.900Z,968.42
2016-11-04T00:58:35.855Z,968.36
2016-11-04T00:59:35.812Z,968.38
2016-11-04T01:00:35.770Z,968.37
2016-11-04T01:01:35.730Z,968.37
2016-11-04T01:02:35.688Z,968.39
2016-11-04T01:03:35.647Z,968.34
2016-11-04T01:04:35.605Z,968.38
2016-11-04T01:05:35.564Z,968.37
2016-11-04T01:06:35.520Z,968.38
2016-11-04T01:07:35.480Z,968.34
2016-11-04T01:08:35.438Z,968.3
2016-11-04T01:09:35.395Z,968.37
2016-11-04T01:10:35.353Z,968.31
2016-11-04T01:11:35.311Z,968.36
2016-11-04T01:12:35.272Z,968.32
2016-11-04T01:13:35.229Z,968.28
2016-11-04T01:14:35.187Z,968.29
2016-11-04T01:15:35.144Z,968.27
2016-11-04T01:16:35.104Z,968.25
2016-11-04T01:17:35.060Z,968.3
2016-11-04T01:18:35.020Z,968.29
2016-11-04T01:19:34.977Z,968.28
2016-11-04T01:20:34.935Z,968.26
2016-11-04T01:21:34.893Z,968.3
2016-11-04T01:22:34.850Z,968.27
2016-11-04T01:23:34.809Z,968.27
2016-11-04T01:24:34.766Z,968.27
2016-11-04T01:25:34.724Z,968.27
2016-11-04T01:26:34.683Z,968.28
2016-11-04T01:27:34.641Z,968.25
2016-11-04T01:28:34.604Z,968.22
2016-11-04T01:29:34.556Z,968.22
2016-11-04T01:30:34.515Z,968.16
2016-11-04T01:31:34.474Z,968.12
2016-11-04T01:32:34.432Z,968.13
2016-11-04T01:33:34.390Z,968.11
2016-11-04T01:34:34.349Z,968.07
2016-11-04T01:35:34.305Z,968.12
2016-11-04T01:36:34.263Z,968.09
2016-11-04T01:37:34.222Z,968.06
2016-11-04T01:38:34.181Z,968.06
2016-11-04T01:39:34.137Z,968.08
2016-11-04T01:40:34.095Z,968.07
2016-11-04T01:41:34.055Z,968.07
2016-11-04T01:42:34.013Z,968.06
2016-11-04T01:43:33.969Z,968.06
2016-11-04T01:44:33.927Z,968.01
2016-11-04T01:45:33.887Z,968.04
2016-11-04T01:46:33.844Z,968.03
2016-11-04T01:47:33.804Z,968.02
2016-11-04T01:48:33.760Z,968.05
2016-11-04T01:49:33.717Z,968.07
2016-11-04T01:50:33.677Z,968.04
2016-11-04T01:51:33.634Z,968
2016-11-04T01:52:33.593Z,968
2016-11-04T01:53:33.550Z,968
2016-11-04T01:54:33.510Z,967.96
2016-11-04T01:55:33.467Z,968
2016-11-04T01:56:33.425Z,968
2016-11-04T01:57:33.382Z,968.01
2016-11-04T01:58:33.341Z,967.99
2016-11-04T01:59:33.299Z,967.98
2016-11-04T02:00:33.256Z,967.97
2016-11-04T02:01:33.215Z,967.98
2016-11-04T02:02:33.172Z,967.98
2016-11-04T02:03:33.131Z,967.92
2016-11-04T02:04:33.087Z,967.91
2016-11-04T02:05:33.044Z,967.87
2016-11-04T02:06:33.003Z,967.88
2016-11-04T02:07:32.962Z,967.91
2016-11-04T02:08:32.920Z,967.92
2016-11-04T02:09:32.877Z,967.93
2016-11-04T02:10:32.834Z,967.89
2016-11-04T02:11:32.793Z,967.86
2016-11-04T02:12:32.750Z,967.85
2016-11-04T02:13:32.710Z,967.88
2016-11-04T02:14:32.664Z,967.84
2016-11-04T02:15:32.625Z,967.86
2016-11-04T02:16:32.588Z,967.82
2016-11-04T02:17:32.542Z,967.85
2016-11-04T02:18:32.499Z,967.82
2016-11-04T02:19:32.457Z,967.83
2016-11-04T02:20:32.414Z,967.88
2016-11-04T02:21:32.374Z,967.84
2016-11-04T02:22:32.328Z,967.84
2016-11-04T02:23:32.287Z,967.83
2016-11-04T02:24:32.244Z,967.85
2016-11-04T02:25:32.202Z,967.84
2016-11-04T02:26:32.159Z,967.87
2016-11-04T02:27:32.117Z,967.83
2016-11-04T02:28:32.076Z,967.79
2016-11-04T02:29:32.034Z,967.81
2016-11-04T02:30:31.991Z,967.86
2016-11-04T02:31:31.948Z,967.8
2016-11-04T02:32:31.908Z,967.89
2016-11-04T02:33:31.864Z,967.88
2016-11-04T02:34:31.823Z,967.87
2016-11-04T02:35:31.781Z,967.86
2016-11-04T02:36:31.740Z,967.86
2016-11-04T02:37:31.698Z,967.87
2016-11-04T02:38:31.653Z,967.83
2016-11-04T02:39:31.611Z,967.85
2016-11-04T02:40:31.570Z,967.84
2016-11-04T02:41:31.526Z,967.85
2016-11-04T02:42:31.485Z,967.84
2016-11-04T02:43:31.441Z,967.82
2016-11-04T02:44:31.400Z,967.89
2016-11-04T02:45:31.359Z,967.8
2016-11-04T02:46:31.332Z,967.85
2016-11-04T02:47:31.274Z,967.83
2016-11-04T02:48:31.229Z,967.8
2016-11-04T02:49:31.189Z,967.79
2016-11-04T02:50:31.147Z,967.79
2016-11-04T02:51:31.106Z,967.78
2016-11-04T02:52:31.064Z,967.82
2016-11-04T02:53:31.019Z,967.74
2016-11-04T02:54:30.979Z,967.68
2016-11-04T02:55:30.939Z,967.65
2016-11-04T02:56:30.893Z,967.67
2016-11-04T02:57:30.853Z,967.64
2016-11-04T02:58:30.809Z,967.69
2016-11-04T02:59:30.766Z,967.64
2016-11-04T03:00:30.724Z,967.63
2016-11-04T03:01:30.683Z,967.6
2016-11-04T03:02:30.640Z,967.67
2016-11-04T03:03:30.599Z,967.62
2016-11-04T03:04:30.560Z,967.61
2016-11-04T03:05:30.515Z,967.67
2016-11-04T03:06:30.471Z,967.69
2016-11-04T03:07:30.428Z,967.66
2016-11-04T03:08:30.386Z,967.63
2016-11-04T03:09:30.343Z,967.63
2016-11-04T03:10:30.301Z,967.63
2016-11-04T03:11:30.260Z,967.61
2016-11-04T03:12:30.218Z,967.6
2016-11-04T03:13:30.175Z,967.59
2016-11-04T03:14:30.134Z,967.59
2016-11-04T03:15:30.090Z,967.58
2016-11-04T03:16:30.049Z,967.58
2016-11-04T03:17:30.006Z,967.6
2016-11-04T03:18:29.964Z,967.6
2016-11-04T03:19:29.922Z,967.6
2016-11-04T03:20:29.881Z,967.63
2016-11-04T03:21:29.837Z,967.62
2016-11-04T03:22:29.795Z,967.63
2016-11-04T03:23:29.753Z,967.63
2016-11-04T03:24:29.710Z,967.62
2016-11-04T03:25:29.667Z,967.64
2016-11-04T03:26:29.628Z,967.64
2016-11-04T03:27:29.584Z,967.65
2016-11-04T03:28:29.540Z,967.63
2016-11-04T03:29:29.500Z,967.66
2016-11-04T03:30:29.459Z,967.6
2016-11-04T03:31:29.415Z,967.61
2016-11-04T03:32:29.371Z,967.59
2016-11-04T03:33:29.329Z,967.6
2016-11-04T03:34:29.288Z,967.61
2016-11-04T03:35:29.245Z,967.59
2016-11-04T03:36:29.219Z,967.55
2016-11-04T03:37:29.161Z,967.6
2016-11-04T03:38:29.118Z,967.57
2016-11-04T03:39:29.075Z,967.58
2016-11-04T03:40:29.032Z,967.58
2016-11-04T03:41:28.991Z,967.57
2016-11-04T03:42:28.948Z,967.55
2016-11-04T03:43:28.905Z,967.59
2016-11-04T03:44:28.862Z,967.55
2016-11-04T03:45:28.820Z,967.52
2016-11-04T03:46:28.778Z,967.5
2016-11-04T03:47:28.736Z,967.5
2016-11-04T03:48:28.694Z,967.46
2016-11-04T03:49:28.652Z,967.45
2016-11-04T03:50:28.609Z,967.42
2016-11-04T03:51:28.566Z,967.48
2016-11-04T03:52:28.524Z,967.47
2016-11-04T03:53:28.483Z,967.45
2016-11-04T03:54:28.437Z,967.48
2016-11-04T03:55:28.398Z,967.48
2016-11-04T03:56:28.354Z,967.47
2016-11-04T03:57:28.314Z,967.44
2016-11-04T03:58:28.269Z,967.44
2016-11-04T03:59:28.228Z,967.4
2016-11-04T04:00:28.185Z,967.44
2016-11-04T04:01:28.142Z,967.43
2016-11-04T04:02:28.103Z,967.38
2016-11-04T04:03:28.055Z,967.44
2016-11-04T04:04:28.015Z,967.46
2016-11-04T04:05:27.972Z,967.46
2016-11-04T04:06:27.929Z,967.44
2016-11-04T04:07:27.886Z,967.45
2016-11-04T04:08:27.844Z,967.48
2016-11-04T04:09:27.802Z,967.41
2016-11-04T04:10:27.759Z,967.38
2016-11-04T04:11:27.718Z,967.37
2016-11-04T04:12:27.676Z,967.35
2016-11-04T04:13:27.633Z,967.32
2016-11-04T04:14:27.591Z,967.31
2016-11-04T04:15:27.547Z,967.31
2016-11-04T04:16:27.504Z,967.27
2016-11-04T04:17:27.464Z,967.21
2016-11-04T04:18:27.420Z,967.19
2016-11-04T04:19:27.377Z,967.21
2016-11-04T04:20:27.334Z,967.2
2016-11-04T04:21:27.291Z,967.18
2016-11-04T04:22:27.250Z,967.17
2016-11-04T04:23:27.208Z,967.18
2016-11-04T04:24:27.168Z,967.14
2016-11-04T04:25:27.124Z,967.1
2016-11-04T04:26:27.081Z,967.14
2016-11-04T04:27:27.038Z,967.11
2016-11-04T04:28:26.994Z,967.14
2016-11-04T04:29:26.953Z,967.12
2016-11-04T04:30:26.909Z,967.07
2016-11-04T04:31:26.867Z,967.08
2016-11-04T04:32:26.825Z,967.05
2016-11-04T04:33:26.785Z,967.05
2016-11-04T04:34:26.739Z,967.06
2016-11-04T04:35:26.697Z,967.06
2016-11-04T04:36:26.655Z,967.05
2016-11-04T04:37:26.612Z,967.07
2016-11-04T04:38:26.569Z,967.04
2016-11-04T04:39:26.527Z,966.99
2016-11-04T04:40:26.484Z,966.92
2016-11-04T04:41:26.442Z,966.91
2016-11-04T04:42:26.399Z,966.89
2016-11-04T04:43:26.357Z,966.91
2016-11-04T04:44:26.314Z,966.89
2016-11-04T04:45:26.272Z,966.89
2016-11-04T04:46:26.229Z,966.86
2016-11-04T04:47:26.187Z,966.87
2016-11-04T04:48:26.145Z,966.87
2016-11-04T04:49:26.102Z,966.85
2016-11-04T04:50:26.061Z,966.82
2016-11-04T04:51:26.019Z,966.83
2016-11-04T04:52:25.979Z,966.82
2016-11-04T04:53:25.931Z,966.83
2016-11-04T04:54:25.892Z,966.83
2016-11-04T04:55:25.848Z,966.86
2016-11-04T04:56:25.805Z,966.83
2016-11-04T04:57:25.762Z,966.83
2016-11-04T04:58:25.720Z,966.81
2016-11-04T04:59:25.678Z,966.8
2016-11-04T05:00:25.635Z,966.76
2016-11-04T05:01:25.592Z,966.77
2016-11-04T05:02:25.550Z,966.83
2016-11-04T05:03:25.507Z,966.79
2016-11-04T05:04:25.465Z,966.76
2016-11-04T05:05:25.424Z,966.81
2016-11-04T05:06:25.381Z,966.75
2016-11-04T05:07:25.337Z,966.78
2016-11-04T05:08:25.297Z,966.78
2016-11-04T05:09:25.253Z,966.74
2016-11-04T05:10:25.211Z,966.71
2016-11-04T05:11:25.167Z,966.71
2016-11-04T05:12:25.126Z,966.7
2016-11-04T05:13:25.084Z,966.67
2016-11-04T05:14:25.039Z,966.74
2016-11-04T05:15:24.998Z,966.71
2016-11-04T05:16:24.955Z,966.71
2016-11-04T05:17:24.913Z,966.73
2016-11-04T05:18:24.870Z,966.65
2016-11-04T05:19:24.830Z,966.67
2016-11-04T05:20:24.787Z,966.71
2016-11-04T05:21:24.743Z,966.7
2016-11-04T05:22:24.700Z,966.74
2016-11-04T05:23:24.659Z,966.76
2016-11-04T05:24:24.618Z,966.75
2016-11-04T05:25:24.574Z,966.78
2016-11-04T05:26:24.532Z,966.78
2016-11-04T05:27:24.492Z,966.83
2016-11-04T05:28:24.447Z,966.75
2016-11-04T05:29:24.404Z,966.75
2016-11-04T05:30:24.363Z,966.74
2016-11-04T05:31:24.320Z,966.75
2016-11-04T05:32:24.279Z,966.73
2016-11-04T05:33:24.235Z,966.75
2016-11-04T05:34:24.194Z,966.73
2016-11-04T05:35:24.152Z,966.73
2016-11-04T05:36:24.109Z,966.72
2016-11-04T05:37:24.069Z,966.72
2016-11-04T05:38:24.026Z,966.72
2016-11-04T05:39:23.984Z,966.71
2016-11-04T05:40:23.941Z,966.72
2016-11-04T05:41:23.901Z,966.68
2016-11-04T05:42:23.858Z,966.71
2016-11-04T05:43:23.815Z,966.71
2016-11-04T05:44:23.773Z,966.73
2016-11-04T05:45:23.732Z,966.72
2016-11-04T05:46:23.690Z,966.72
2016-11-04T05:47:23.647Z,966.7
2016-11-04T05:48:23.607Z,966.72
2016-11-04T05:49:23.563Z,966.72
2016-11-04T05:50:23.522Z,966.72
2016-11-04T05:51:23.478Z,966.75
2016-11-04T05:52:23.438Z,966.76
2016-11-04T05:53:23.396Z,966.71
2016-11-04T05:54:23.353Z,966.72
2016-11-04T05:55:23.312Z,966.68
2016-11-04T05:56:23.270Z,966.72
2016-11-04T05:57:23.228Z,966.71
2016-11-04T05:58:23.187Z,966.68
2016-11-04T05:59:23.145Z,966.68
2016-11-04T06:00:23.103Z,966.69
2016-11-04T06:01:23.062Z,966.67
2016-11-04T06:02:23.018Z,966.65
2016-11-04T06:03:22.979Z,966.64
2016-11-04T06:04:22.936Z,966.64
2016-11-04T06:05:22.894Z,966.66
2016-11-04T06:06:22.853Z,966.63
2016-11-04T06:07:22.811Z,966.65
2016-11-04T06:08:22.769Z,966.61
2016-11-04T06:09:22.727Z,966.6
2016-11-04T06:10:22.686Z,966.58
2016-11-04T06:11:22.644Z,966.55
2016-11-04T06:12:22.604Z,966.56
2016-11-04T06:13:22.559Z,966.59
2016-11-04T06:14:22.518Z,966.63
2016-11-04T06:15:22.476Z,966.63
2016-11-04T06:16:22.435Z,966.65
2016-11-04T06:17:22.393Z,966.66
2016-11-04T06:18:22.353Z,966.6
2016-11-04T06:19:22.312Z,966.66
2016-11-04T06:20:22.270Z,966.63
2016-11-04T06:21:22.227Z,966.6
2016-11-04T06:22:22.185Z,966.64
2016-11-04T06:23:22.145Z,966.55
2016-11-04T06:24:22.106Z,966.63
2016-11-04T06:25:22.064Z,966.69
2016-11-04T06:26:22.020Z,966.7
2016-11-04T06:27:21.977Z,966.68
2016-11-04T06:28:21.936Z,966.66
2016-11-04T06:29:21.895Z,966.67
2016-11-04T06:30:21.854Z,966.64
2016-11-04T06:31:21.812Z,966.64
2016-11-04T06:32:21.770Z,966.67
2016-11-04T06:33:21.729Z,966.64
2016-11-04T06:34:21.688Z,966.66
2016-11-04T06:35:21.646Z,966.67
2016-11-04T06:36:21.604Z,966.67
2016-11-04T06:37:21.572Z,966.65
2016-11-04T06:38:21.522Z,966.6
2016-11-04T06:39:21.480Z,966.63
2016-11-04T06:40:21.440Z,966.63
2016-11-04T06:41:21.399Z,966.61
2016-11-04T06:42:21.356Z,966.66
2016-11-04T06:43:21.315Z,966.65
2016-11-04T06:44:21.274Z,966.68
2016-11-04T06:45:21.232Z,966.7
2016-11-04T06:46:21.191Z,966.74
2016-11-04T06:47:21.150Z,966.77
2016-11-04T06:48:21.108Z,966.76
2016-11-04T06:49:21.067Z,966.8
2016-11-04T06:50:21.027Z,966.77
2016-11-04T06:51:20.985Z,966.79
2016-11-04T06:52:20.945Z,966.79
2016-11-04T06:53:20.952Z,966.8
2016-11-04T06:54:20.862Z,966.82
2016-11-04T06:55:20.820Z,966.84
2016-11-04T06:56:20.777Z,966.83
2016-11-04T06:57:20.738Z,966.83
2016-11-04T06:58:20.695Z,966.8
2016-11-04T06:59:20.654Z,966.88
2016-11-04T07:00:20.612Z,966.87
2016-11-04T07:01:20.572Z,966.88
2016-11-04T07:02:20.532Z,966.92
2016-11-04T07:03:20.489Z,966.94
2016-11-04T07:04:20.448Z,966.87
2016-11-04T07:05:20.406Z,966.88
2016-11-04T07:06:20.366Z,966.87
2016-11-04T07:07:20.326Z,966.84
2016-11-04T07:08:20.282Z,966.87
2016-11-04T07:09:20.240Z,966.86
2016-11-04T07:10:20.201Z,966.83
2016-11-04T07:11:20.160Z,966.82
2016-11-04T07:12:20.117Z,966.83
2016-11-04T07:13:20.077Z,966.82
2016-11-04T07:14:20.036Z,966.86
2016-11-04T07:15:19.997Z,966.81
2016-11-04T07:16:19.954Z,966.85
2016-11-04T07:17:19.913Z,966.82
2016-11-04T07:18:19.872Z,966.78
2016-11-04T07:19:19.830Z,966.86
2016-11-04T07:20:19.789Z,966.76
2016-11-04T07:21:19.748Z,966.82
2016-11-04T07:22:19.708Z,966.71
2016-11-04T07:23:19.664Z,966.72
2016-11-04T07:24:19.626Z,966.74
2016-11-04T07:25:19.584Z,966.76
2016-11-04T07:26:19.542Z,966.77
2016-11-04T07:27:19.502Z,966.77
2016-11-04T07:28:19.462Z,966.78
2016-11-04T07:29:19.420Z,966.77
2016-11-04T07:30:19.379Z,966.75
2016-11-04T07:31:19.338Z,966.7
2016-11-04T07:32:19.297Z,966.67
2016-11-04T07:33:19.255Z,966.7
2016-11-04T07:34:19.215Z,966.69
2016-11-04T07:35:19.175Z,966.68
2016-11-04T07:36:19.134Z,966.72
2016-11-04T07:37:19.092Z,966.69
2016-11-04T07:38:19.052Z,966.64
2016-11-04T07:39:19.012Z,966.67
2016-11-04T07:40:18.971Z,966.66
2016-11-04T07:41:18.930Z,966.64
2016-11-04T07:42:18.892Z,966.68
2016-11-04T07:43:18.849Z,966.67
2016-11-04T07:44:18.807Z,966.68
2016-11-04T07:45:18.767Z,966.68
2016-11-04T07:46:18.730Z,966.7
2016-11-04T07:47:18.695Z,966.67
2016-11-04T07:48:18.645Z,966.66
2016-11-04T07:49:18.605Z,966.69
2016-11-04T07:50:18.565Z,966.66
2016-11-04T07:51:18.525Z,966.68
2016-11-04T07:52:18.484Z,966.64
2016-11-04T07:53:18.443Z,966.66
2016-11-04T07:54:18.405Z,966.62
2016-11-04T07:55:18.362Z,966.65
2016-11-04T07:56:18.322Z,966.66
2016-11-04T07:57:18.283Z,966.63
2016-11-04T07:58:18.242Z,966.64
2016-11-04T07:59:18.203Z,966.63
2016-11-04T08:00:18.162Z,966.7
2016-11-04T08:01:18.121Z,966.67
2016-11-04T08:02:18.081Z,966.69
2016-11-04T08:03:18.040Z,966.69
2016-11-04T08:04:18.000Z,966.67
2016-11-04T08:05:17.960Z,966.64
2016-11-04T08:06:17.921Z,966.66
2016-11-04T08:07:17.880Z,966.63
2016-11-04T08:08:17.839Z,966.66
2016-11-04T08:09:17.799Z,966.61
2016-11-04T08:10:17.759Z,966.57
2016-11-04T08:11:17.720Z,966.6
2016-11-04T08:12:17.680Z,966.64
2016-11-04T08:13:17.637Z,966.65
2016-11-04T08:14:17.599Z,966.64
2016-11-04T08:15:17.560Z,966.71
2016-11-04T08:16:17.523Z,966.68
2016-11-04T08:17:17.479Z,966.7
2016-11-04T08:18:17.440Z,966.72
2016-11-04T08:19:17.400Z,966.72
2016-11-04T08:20:17.359Z,966.74
2016-11-04T08:21:17.320Z,966.72
2016-11-04T08:22:17.281Z,966.74
2016-11-04T08:23:17.240Z,966.79
2016-11-04T08:24:17.202Z,966.8
2016-11-04T08:25:17.162Z,966.83
2016-11-04T08:26:17.122Z,966.8
2016-11-04T08:27:17.083Z,966.79
2016-11-04T08:28:17.042Z,966.8
2016-11-04T08:29:17.003Z,966.81
2016-11-04T08:30:16.962Z,966.79
2016-11-04T08:31:16.922Z,966.8
2016-11-04T08:32:16.884Z,966.79
2016-11-04T08:33:16.846Z,966.78
2016-11-04T08:34:16.805Z,966.78
2016-11-04T08:35:16.767Z,966.83
2016-11-04T08:36:16.725Z,966.79
2016-11-04T08:37:16.685Z,966.77
2016-11-04T08:38:16.657Z,966.72
2016-11-04T08:39:16.607Z,966.79
2016-11-04T08:40:16.567Z,966.71
2016-11-04T08:41:16.529Z,966.74
2016-11-04T08:42:16.488Z,966.75
2016-11-04T08:43:16.450Z,966.73
2016-11-04T08:44:16.411Z,966.69
2016-11-04T08:45:16.372Z,966.72
2016-11-04T08:46:16.332Z,966.71
2016-11-04T08:47:16.292Z,966.75
2016-11-04T08:48:16.254Z,966.75
2016-11-04T08:49:16.215Z,966.76
2016-11-04T08:50:16.174Z,966.74
2016-11-04T08:51:16.136Z,966.76
2016-11-04T08:52:16.099Z,966.8
2016-11-04T08:53:16.058Z,966.81
2016-11-04T08:54:16.018Z,966.84
2016-11-04T08:55:15.979Z,966.85
2016-11-04T08:56:15.940Z,966.81
2016-11-04T08:57:15.900Z,966.86
2016-11-04T08:58:15.860Z,966.89
2016-11-04T08:59:15.820Z,966.9
2016-11-04T09:00:15.784Z,966.89
2016-11-04T09:01:15.744Z,966.92
2016-11-04T09:02:15.704Z,966.95
2016-11-04T09:03:15.665Z,967.01
2016-11-04T09:04:15.625Z,966.97
2016-11-04T09:05:15.589Z,967
2016-11-04T09:06:15.549Z,966.95
2016-11-04T09:07:15.510Z,966.92
2016-11-04T09:08:15.471Z,966.96
2016-11-04T09:09:15.431Z,966.99
2016-11-04T09:10:15.392Z,966.93
2016-11-04T09:11:15.353Z,967.01
2016-11-04T09:12:15.313Z,967.02
2016-11-04T09:13:15.275Z,967.04
2016-11-04T09:14:15.236Z,967.07
2016-11-04T09:15:15.197Z,967.06
2016-11-04T09:16:15.158Z,967.07
2016-11-04T09:17:15.120Z,967.05
2016-11-04T09:18:15.081Z,967.1
2016-11-04T09:19:15.044Z,967.09
2016-11-04T09:20:15.003Z,967.09
2016-11-04T09:21:14.965Z,967.08
2016-11-04T09:22:14.927Z,967.1
2016-11-04T09:23:14.886Z,967.1
2016-11-04T09:24:14.849Z,967.13
2016-11-04T09:25:14.810Z,967.15
2016-11-04T09:26:14.771Z,967.09
2016-11-04T09:27:14.733Z,967.05
2016-11-04T09:28:14.693Z,967.06
2016-11-04T09:29:14.656Z,967.07
2016-11-04T09:30:14.617Z,967.04
2016-11-04T09:31:14.578Z,967.01
2016-11-04T09:32:14.540Z,967.06
2016-11-04T09:33:14.501Z,967.08
2016-11-04T09:34:14.466Z,967.07
2016-11-04T09:35:14.426Z,967.12
2016-11-04T09:36:14.388Z,967.07
2016-11-04T09:37:14.348Z,967.09
2016-11-04T09:38:14.310Z,967.1
2016-11-04T09:39:14.272Z,967.15
2016-11-04T09:40:14.237Z,967.16
2016-11-04T09:41:14.202Z,967.13
2016-11-04T09:42:14.157Z,967.18
2016-11-04T09:43:14.120Z,967.23
2016-11-04T09:44:14.082Z,967.28
2016-11-04T09:45:14.043Z,967.17
2016-11-04T09:46:14.006Z,967.14
2016-11-04T09:47:13.968Z,967.1
2016-11-04T09:48:13.929Z,967.1
2016-11-04T09:49:13.893Z,967.07
2016-11-04T09:50:13.856Z,967.07
2016-11-04T09:51:13.820Z,967.11
2016-11-04T09:52:13.781Z,967.1
2016-11-04T09:53:13.745Z,967.11
2016-11-04T09:54:13.708Z,967.15
2016-11-04T09:55:13.671Z,967.13
2016-11-04T09:56:13.635Z,967.16
2016-11-04T09:57:13.602Z,967.13
2016-11-04T09:58:13.564Z,967.1
2016-11-04T09:59:13.527Z,967.07
2016-11-04T10:00:13.491Z,967.07
2016-11-04T10:01:13.456Z,967.06
2016-11-04T10:02:13.423Z,967.08
2016-11-04T10:03:13.385Z,967.05
2016-11-04T10:04:13.350Z,967.04
2016-11-04T10:05:13.316Z,967.02
2016-11-04T10:06:13.277Z,967.02
2016-11-04T10:07:13.243Z,967.07
2016-11-04T10:08:13.209Z,967.07
2016-11-04T10:09:13.172Z,967.06
2016-11-04T10:10:13.136Z,967.08
2016-11-04T10:11:13.103Z,967.08
2016-11-04T10:12:13.066Z,967.09
2016-11-04T10:13:13.031Z,967.07
2016-11-04T10:14:12.996Z,967.11
2016-11-04T10:15:12.960Z,967.1
2016-11-04T10:16:12.926Z,967.04
2016-11-04T10:17:12.889Z,967.01
2016-11-04T10:18:12.856Z,967.06
2016-11-04T10:19:12.820Z,967.04
2016-11-04T10:20:12.785Z,966.99
2016-11-04T10:21:12.752Z,966.96
2016-11-04T10:22:12.716Z,966.99
2016-11-04T10:23:12.682Z,967.03
2016-11-04T10:24:12.648Z,966.98
2016-11-04T10:25:12.614Z,967
2016-11-04T10:26:12.579Z,967.04
2016-11-04T10:27:12.545Z,967.12
2016-11-04T10:28:12.510Z,967.07
2016-11-04T10:29:12.479Z,967.09
2016-11-04T10:30:12.443Z,967.04
2016-11-04T10:31:12.410Z,966.98
2016-11-04T10:32:12.376Z,966.99
2016-11-04T10:33:12.343Z,966.99
2016-11-04T10:34:12.311Z,966.93
2016-11-04T10:35:12.278Z,967.06
2016-11-04T10:36:12.242Z,966.99
2016-11-04T10:37:12.213Z,966.96
2016-11-04T10:38:12.179Z,966.96
2016-11-04T10:39:12.147Z,966.95
2016-11-04T10:40:12.115Z,966.93
2016-11-04T10:41:12.083Z,966.95
2016-11-04T10:42:12.053Z,966.96
2016-11-04T10:43:12.021Z,966.95
2016-11-04T10:44:11.995Z,966.91
2016-11-04T10:45:11.962Z,966.89
2016-11-04T10:46:11.932Z,966.88
2016-11-04T10:47:11.903Z,966.88
2016-11-04T10:48:11.871Z,966.88
2016-11-04T10:49:11.842Z,966.89
2016-11-04T10:50:11.813Z,966.74
2016-11-04T10:51:11.782Z,966.88
2016-11-04T10:52:11.754Z,967.02
2016-11-04T10:53:11.726Z,966.89
2016-11-04T10:54:11.704Z,966.66
2016-11-04T10:55:11.667Z,966.52
2016-11-04T10:56:11.638Z,966.52
2016-11-04T10:57:11.609Z,966.54
2016-11-04T10:58:11.697Z,966.51
2016-11-04T10:59:11.551Z,966.43
2016-11-04T11:00:11.523Z,966.44
2016-11-04T11:01:11.492Z,966.44
2016-11-04T11:02:11.466Z,966.45
2016-11-04T11:03:11.435Z,966.4
2016-11-04T11:04:11.407Z,966.34
2016-11-04T11:05:11.377Z,966.28
2016-11-04T11:06:11.348Z,966.21
2016-11-04T11:07:11.319Z,966.22
2016-11-04T11:08:11.291Z,966.22
2016-11-04T11:09:11.266Z,966.2
2016-11-04T11:10:11.236Z,966.22
2016-11-04T11:11:11.203Z,966.48
2016-11-04T11:12:11.176Z,966.73
2016-11-04T11:13:11.143Z,966.67
2016-11-04T11:14:11.115Z,966.58
2016-11-04T11:15:11.086Z,966.25
2016-11-04T11:16:11.056Z,965.97
2016-11-04T11:17:11.027Z,965.9
2016-11-04T11:18:10.997Z,965.87
2016-11-04T11:19:10.966Z,965.87
2016-11-04T11:20:10.938Z,965.81
2016-11-04T11:21:10.907Z,965.69
2016-11-04T11:22:10.879Z,965.72
2016-11-04T11:23:10.846Z,965.74
2016-11-04T11:24:10.817Z,965.71
2016-11-04T11:25:10.787Z,965.67
2016-11-04T11:26:10.756Z,965.65
2016-11-04T11:27:10.729Z,965.59
2016-11-04T11:28:10.704Z,965.51
2016-11-04T11:29:10.664Z,965.46
2016-11-04T11:30:10.641Z,965.42
2016-11-04T11:31:10.602Z,965.39
2016-11-04T11:32:10.573Z,965.39
2016-11-04T11:33:10.540Z,965.37
2016-11-04T11:34:10.508Z,965.37
2016-11-04T11:35:10.477Z,965.32
2016-11-04T11:36:10.443Z,965.29
2016-11-04T11:37:10.411Z,965.27
2016-11-04T11:38:10.379Z,965.28
2016-11-04T11:39:10.347Z,965.28
2016-11-04T11:40:10.314Z,965.28
2016-11-04T11:41:10.280Z,965.24
2016-11-04T11:42:10.247Z,965.24
2016-11-04T11:43:10.215Z,965.17
2016-11-04T11:44:10.182Z,965.2
2016-11-04T11:45:10.149Z,965.19
2016-11-04T11:46:10.116Z,965.19
2016-11-04T11:47:10.082Z,965.22
2016-11-04T11:48:10.050Z,965.17
2016-11-04T11:49:10.014Z,965.25
2016-11-04T11:50:09.999Z,965.21
2016-11-04T11:51:09.947Z,965.18
2016-11-04T11:52:09.914Z,965.19
2016-11-04T11:53:09.879Z,965.17
2016-11-04T11:54:09.846Z,965.15
2016-11-04T11:55:09.811Z,965.16
2016-11-04T11:56:09.775Z,965.12
2016-11-04T11:57:09.740Z,965.02
2016-11-04T11:58:09.708Z,965.02
2016-11-04T11:59:09.674Z,964.98
2016-11-04T12:00:09.639Z,965
2016-11-04T12:01:09.610Z,964.95
2016-11-04T12:02:09.570Z,964.91
2016-11-04T12:03:09.535Z,964.89
2016-11-04T12:04:09.500Z,964.9
2016-11-04T12:05:09.468Z,964.87
2016-11-04T12:06:09.431Z,964.88
2016-11-04T12:07:09.395Z,964.84
2016-11-04T12:08:09.363Z,964.83
2016-11-04T12:09:09.327Z,964.82
2016-11-04T12:10:09.292Z,964.81
2016-11-04T12:11:09.255Z,964.81
2016-11-04T12:12:09.220Z,964.78
2016-11-04T12:13:09.186Z,964.74
2016-11-04T12:14:09.150Z,964.73
2016-11-04T12:15:09.114Z,964.73
2016-11-04T12:16:09.081Z,964.72
2016-11-04T12:17:09.049Z,964.69
2016-11-04T12:18:09.009Z,964.65
2016-11-04T12:19:08.974Z,964.63
2016-11-04T12:20:08.937Z,964.6
2016-11-04T12:21:08.906Z,964.64
2016-11-04T12:22:08.867Z,964.58
2016-11-04T12:23:08.832Z,964.53
2016-11-04T12:24:08.796Z,964.53
2016-11-04T12:25:08.759Z,964.51
2016-11-04T12:26:08.726Z,964.53
2016-11-04T12:27:08.689Z,964.45
2016-11-04T12:28:08.656Z,964.48
2016-11-04T12:29:08.619Z,964.41
2016-11-04T12:30:08.582Z,964.39
2016-11-04T12:31:08.547Z,964.37